Lantana, FL (33462)

7:25 AM EDT on June 30, 2015 (GMT -0400)
Rolling Green Ridge | | Change Station
CLOSE
Current Station
Personal Weather Station
Location: Boynton Beach, FL
Elevation: 19 ft
Nearby Weather Stations

Elev 19 ft 26.56 °N, 80.07 °W | Updated 55 seconds ago

Partly Cloudy
Partly Cloudy
75.2 °F
Feels Like 74 °F
N
2.7
Wind Variable Wind from NNW
Gusts 2.7 mph

Today
High -- | Low -- °F
--% Chance of Precip.
Yesterday
High -- | Low -- °F
Precip. -- in
6:30 AM 8:17 PM
Waxing Gibbous, 97% visible
Pressure 30.12 in
Visibility 10.0 miles
Clouds Few 13000 ft
Scattered Clouds 25000 ft
Heat Index 74 °F
Dew Point 73 °F
Humidity 94%
Rainfall in
Snow Depth Not available.
UV 0 out of 12
Pollen 3.50 out of 12
Air Quality Not available.
Flu Activity Sporadic
METAR KPBI 300953Z 00000KT 10SM FEW130 SCT250 24/23 A3012 RMK AO2 SLP199 T02390228

More Conditions Fewer Conditions

Pressure 30.12 in
Visibility 10.0 miles
Clouds Few 13000 ft
Scattered Clouds 25000 ft
Heat Index 74 °F
Dew Point 73 °F
Humidity 94%
Rainfall in
Snow Depth Not available.
UV 0 out of 12
Pollen 3.50 out of 12
Air Quality Not available.
Flu Activity Sporadic
METAR KPBI 300953Z 00000KT 10SM FEW130 SCT250 24/23 A3012 RMK AO2 SLP199 T02390228

More Conditions Fewer Conditions

10-Day Weather Forecast

×

Almanac

Astronomy

Jun. 30, 2015 Rise Set
Actual Time
Civil Twilight
Nautical Twilight
Astronomical Twilight
Moon
Length of Visible Light
Length of Day
Tomorrow will be .
, % of the Moon is Illuminated

Today's Extremes

State Highs State Lows

Community

WunderPhotos

Upload Photos

1,833,975 photos uploaded!

WunderBlogs® & News

Nearby

Air Quality

  Air Quality AQ Index Pollutant
Not available.

Snow Depth

Station Depth Elevation

Earthquake Activity

City Distance Mag. Time & Date
Minimum magnitude displayed is 2.5.

Coastal Water Temperatures

Place Temperature

Stations

Nearby Weather Stations

Station Location Temp. Windchill Dew Point Humidity Wind Precip. Elev Updated Type